sensor_id;sensor_type;location;lat;lon;timestamp;pressure;altitude;pressure_sealevel;temperature;humidity
72794;BME280;63436;26.334;50.194;2023-04-09T00:01:56;101525.17;;;27.76;13.21
72794;BME280;63436;26.334;50.194;2023-04-09T00:04:21;101527.03;;;27.62;13.22
72794;BME280;63436;26.334;50.194;2023-04-09T00:06:46;101527.04;;;26.78;14.64
72794;BME280;63436;26.334;50.194;2023-04-09T00:09:11;101531.21;;;27.02;14.30
72794;BME280;63436;26.334;50.194;2023-04-09T00:11:37;101531.14;;;27.28;13.92
72794;BME280;63436;26.334;50.194;2023-04-09T00:14:02;101533.99;;;26.53;15.03
72794;BME280;63436;26.334;50.194;2023-04-09T00:16:28;101535.59;;;26.61;14.61
72794;BME280;63436;26.334;50.194;2023-04-09T00:18:53;101533.77;;;27.28;14.13
72794;BME280;63436;26.334;50.194;2023-04-09T00:21:19;101533.71;;;27.11;14.18
72794;BME280;63436;26.334;50.194;2023-04-09T00:23:45;101537.31;;;27.06;14.48
72794;BME280;63436;26.334;50.194;2023-04-09T00:26:10;101535.77;;;26.97;14.58
72794;BME280;63436;26.334;50.194;2023-04-09T00:28:35;101535.74;;;27.82;13.36
72794;BME280;63436;26.334;50.194;2023-04-09T00:31:01;101536.41;;;28.09;13.32
72794;BME280;63436;26.334;50.194;2023-04-09T00:33:26;101536.31;;;26.98;14.45
72794;BME280;63436;26.334;50.194;2023-04-09T00:35:52;101538.67;;;27.24;13.81
72794;BME280;63436;26.334;50.194;2023-04-09T00:38:17;101538.93;;;27.67;13.18
72794;BME280;63436;26.334;50.194;2023-04-09T00:40:43;101538.38;;;28.28;12.60
72794;BME280;63436;26.334;50.194;2023-04-09T00:43:08;101541.58;;;27.78;13.04
72794;BME280;63436;26.334;50.194;2023-04-09T00:45:34;101539.35;;;27.73;13.00
72794;BME280;63436;26.334;50.194;2023-04-09T00:47:59;101539.39;;;27.92;12.92
72794;BME280;63436;26.334;50.194;2023-04-09T00:50:25;101538.97;;;27.68;12.90
72794;BME280;63436;26.334;50.194;2023-04-09T00:52:51;101539.56;;;27.25;12.97
72794;BME280;63436;26.334;50.194;2023-04-09T00:55:17;101538.17;;;28.04;12.77
72794;BME280;63436;26.334;50.194;2023-04-09T00:57:42;101541.71;;;27.78;12.85
72794;BME280;63436;26.334;50.194;2023-04-09T01:00:08;101542.48;;;27.87;12.68
72794;BME280;63436;26.334;50.194;2023-04-09T01:02:32;101543.98;;;27.98;12.80
72794;BME280;63436;26.334;50.194;2023-04-09T01:04:57;101546.42;;;27.87;12.91
72794;BME280;63436;26.334;50.194;2023-04-09T01:07:33;101548.32;;;27.60;12.76
72794;BME280;63436;26.334;50.194;2023-04-09T01:09:56;101548.96;;;27.77;12.70
72794;BME280;63436;26.334;50.194;2023-04-09T01:12:20;101550.56;;;27.66;12.72
72794;BME280;63436;26.334;50.194;2023-04-09T01:14:47;101551.15;;;27.71;12.59
72794;BME280;63436;26.334;50.194;2023-04-09T01:17:10;101552.50;;;27.23;12.88
72794;BME280;63436;26.334;50.194;2023-04-09T01:19:41;101548.77;;;27.56;12.79
72794;BME280;63436;26.334;50.194;2023-04-09T01:21:57;101548.79;;;27.60;12.61
72794;BME280;63436;26.334;50.194;2023-04-09T01:24:32;101548.43;;;27.34;12.62
72794;BME280;63436;26.334;50.194;2023-04-09T01:26:53;101551.05;;;27.71;12.42
72794;BME280;63436;26.334;50.194;2023-04-09T01:29:15;101555.18;;;27.27;12.59
72794;BME280;63436;26.334;50.194;2023-04-09T01:31:39;101557.60;;;27.31;12.66
72794;BME280;63436;26.334;50.194;2023-04-09T01:34:05;101556.70;;;27.40;12.72
72794;BME280;63436;26.334;50.194;2023-04-09T01:36:30;101556.74;;;27.38;12.76
72794;BME280;63436;26.334;50.194;2023-04-09T01:38:55;101557.66;;;27.35;12.82
72794;BME280;63436;26.334;50.194;2023-04-09T01:41:21;101558.79;;;26.94;12.97
72794;BME280;63436;26.334;50.194;2023-04-09T01:43:47;101558.87;;;27.38;12.84
72794;BME280;63436;26.334;50.194;2023-04-09T01:46:12;101560.65;;;27.47;12.75
72794;BME280;63436;26.334;50.194;2023-04-09T01:48:36;101557.05;;;27.33;12.61
72794;BME280;63436;26.334;50.194;2023-04-09T01:51:02;101562.36;;;27.71;12.72
72794;BME280;63436;26.334;50.194;2023-04-09T01:53:27;101566.27;;;27.62;12.97
72794;BME280;63436;26.334;50.194;2023-04-09T01:55:52;101570.15;;;27.73;13.18
72794;BME280;63436;26.334;50.194;2023-04-09T01:58:17;101570.06;;;27.44;12.97
72794;BME280;63436;26.334;50.194;2023-04-09T02:00:46;101572.94;;;26.83;13.55
72794;BME280;63436;26.334;50.194;2023-04-09T02:03:12;101575.48;;;26.74;13.53
72794;BME280;63436;26.334;50.194;2023-04-09T02:05:38;101576.78;;;27.41;13.77
72794;BME280;63436;26.334;50.194;2023-04-09T02:08:01;101579.58;;;26.70;14.69
72794;BME280;63436;26.334;50.194;2023-04-09T02:10:26;101582.19;;;26.77;14.97
72794;BME280;63436;26.334;50.194;2023-04-09T02:12:51;101586.55;;;25.90;15.14
72794;BME280;63436;26.334;50.194;2023-04-09T02:15:16;101584.07;;;27.28;13.74
72794;BME280;63436;26.334;50.194;2023-04-09T02:17:41;101584.37;;;27.66;13.73
72794;BME280;63436;26.334;50.194;2023-04-09T02:20:15;101588.37;;;27.70;13.37
72794;BME280;63436;26.334;50.194;2023-04-09T02:22:31;101587.66;;;27.46;13.49
72794;BME280;63436;26.334;50.194;2023-04-09T02:24:56;101591.41;;;28.18;13.24
72794;BME280;63436;26.334;50.194;2023-04-09T02:27:22;101593.25;;;27.40;13.62
72794;BME280;63436;26.334;50.194;2023-04-09T02:29:48;101598.45;;;27.83;13.28
72794;BME280;63436;26.334;50.194;2023-04-09T02:32:13;101599.03;;;28.04;13.60
72794;BME280;63436;26.334;50.194;2023-04-09T02:34:40;101602.70;;;27.75;13.60
72794;BME280;63436;26.334;50.194;2023-04-09T02:37:04;101601.88;;;27.43;13.67
72794;BME280;63436;26.334;50.194;2023-04-09T02:39:30;101600.93;;;27.76;14.23
72794;BME280;63436;26.334;50.194;2023-04-09T02:41:55;101604.24;;;26.50;14.90
72794;BME280;63436;26.334;50.194;2023-04-09T02:44:21;101600.45;;;27.51;14.23
72794;BME280;63436;26.334;50.194;2023-04-09T02:46:46;101606.63;;;27.19;14.42
72794;BME280;63436;26.334;50.194;2023-04-09T02:49:12;101603.74;;;27.03;14.20
72794;BME280;63436;26.334;50.194;2023-04-09T02:51:37;101607.20;;;26.54;14.49
72794;BME280;63436;26.334;50.194;2023-04-09T02:54:03;101612.46;;;26.70;14.39
72794;BME280;63436;26.334;50.194;2023-04-09T02:56:28;101620.37;;;27.31;14.17
72794;BME280;63436;26.334;50.194;2023-04-09T02:58:53;101629.34;;;26.26;15.61
72794;BME280;63436;26.334;50.194;2023-04-09T03:01:19;101635.44;;;26.54;14.22
72794;BME280;63436;26.334;50.194;2023-04-09T03:03:44;101636.78;;;27.58;13.30
72794;BME280;63436;26.334;50.194;2023-04-09T03:06:10;101637.66;;;27.08;13.47
72794;BME280;63436;26.334;50.194;2023-04-09T03:08:35;101636.48;;;27.69;13.15
72794;BME280;63436;26.334;50.194;2023-04-09T03:11:01;101639.18;;;27.18;13.98
72794;BME280;63436;26.334;50.194;2023-04-09T03:13:27;101640.08;;;27.56;13.28
72794;BME280;63436;26.334;50.194;2023-04-09T03:15:52;101641.38;;;27.80;13.53
72794;BME280;63436;26.334;50.194;2023-04-09T03:18:18;101638.03;;;27.95;13.62
72794;BME280;63436;26.334;50.194;2023-04-09T03:20:43;101639.04;;;27.77;13.23
72794;BME280;63436;26.334;50.194;2023-04-09T03:23:09;101639.29;;;28.03;12.73
72794;BME280;63436;26.334;50.194;2023-04-09T03:25:34;101637.00;;;28.24;13.13
72794;BME280;63436;26.334;50.194;2023-04-09T03:27:59;101634.86;;;28.13;12.91
72794;BME280;63436;26.334;50.194;2023-04-09T03:30:25;101636.25;;;27.94;12.93
72794;BME280;63436;26.334;50.194;2023-04-09T03:32:50;101637.73;;;28.69;13.05
72794;BME280;63436;26.334;50.194;2023-04-09T03:35:15;101640.55;;;27.97;13.13
72794;BME280;63436;26.334;50.194;2023-04-09T03:37:41;101638.06;;;27.90;13.18
72794;BME280;63436;26.334;50.194;2023-04-09T03:40:07;101639.52;;;27.95;13.33
72794;BME280;63436;26.334;50.194;2023-04-09T03:42:32;101640.55;;;27.60;13.41
72794;BME280;63436;26.334;50.194;2023-04-09T03:44:57;101644.13;;;27.42;13.69
72794;BME280;63436;26.334;50.194;2023-04-09T03:47:22;101644.99;;;27.79;13.50
72794;BME280;63436;26.334;50.194;2023-04-09T03:49:47;101646.13;;;27.39;13.64
72794;BME280;63436;26.334;50.194;2023-04-09T03:52:13;101644.27;;;28.35;13.44
72794;BME280;63436;26.334;50.194;2023-04-09T03:54:38;101644.77;;;28.65;13.19
72794;BME280;63436;26.334;50.194;2023-04-09T03:57:03;101648.68;;;28.26;13.40
72794;BME280;63436;26.334;50.194;2023-04-09T03:59:29;101650.56;;;28.19;13.63
72794;BME280;63436;26.334;50.194;2023-04-09T04:01:54;101651.62;;;28.58;13.43
72794;BME280;63436;26.334;50.194;2023-04-09T04:04:20;101655.45;;;28.35;13.60
72794;BME280;63436;26.334;50.194;2023-04-09T04:06:45;101657.62;;;28.40;13.50
72794;BME280;63436;26.334;50.194;2023-04-09T04:09:11;101659.31;;;28.76;13.52
72794;BME280;63436;26.334;50.194;2023-04-09T04:11:36;101661.89;;;28.82;13.35
72794;BME280;63436;26.334;50.194;2023-04-09T04:14:02;101666.30;;;28.49;13.55
72794;BME280;63436;26.334;50.194;2023-04-09T04:16:27;101669.69;;;28.87;13.31
72794;BME280;63436;26.334;50.194;2023-04-09T04:18:53;101672.36;;;29.67;13.12
72794;BME280;63436;26.334;50.194;2023-04-09T04:21:18;101672.27;;;29.57;13.28
72794;BME280;63436;26.334;50.194;2023-04-09T04:23:44;101677.25;;;29.38;13.21
72794;BME280;63436;26.334;50.194;2023-04-09T04:26:09;101680.55;;;29.01;13.14
72794;BME280;63436;26.334;50.194;2023-04-09T04:28:34;101682.19;;;28.89;13.39
72794;BME280;63436;26.334;50.194;2023-04-09T04:30:59;101687.62;;;29.10;13.42
72794;BME280;63436;26.334;50.194;2023-04-09T04:33:24;101687.92;;;29.18;13.53
72794;BME280;63436;26.334;50.194;2023-04-09T04:35:50;101689.84;;;29.63;13.23
72794;BME280;63436;26.334;50.194;2023-04-09T04:38:15;101692.35;;;30.20;13.26
72794;BME280;63436;26.334;50.194;2023-04-09T04:40:40;101688.69;;;29.45;13.07
72794;BME280;63436;26.334;50.194;2023-04-09T04:43:06;101689.12;;;30.00;13.06
72794;BME280;63436;26.334;50.194;2023-04-09T04:45:31;101689.27;;;30.44;12.58
72794;BME280;63436;26.334;50.194;2023-04-09T04:47:56;101688.24;;;31.10;12.53
72794;BME280;63436;26.334;50.194;2023-04-09T04:50:22;101687.94;;;31.14;12.33
72794;BME280;63436;26.334;50.194;2023-04-09T04:52:47;101688.07;;;30.93;12.16
72794;BME280;63436;26.334;50.194;2023-04-09T04:55:12;101688.84;;;31.08;12.29
72794;BME280;63436;26.334;50.194;2023-04-09T04:57:37;101695.73;;;30.15;12.78
72794;BME280;63436;26.334;50.194;2023-04-09T05:00:03;101696.57;;;31.15;12.58
72794;BME280;63436;26.334;50.194;2023-04-09T05:02:28;101700.55;;;30.35;12.85
72794;BME280;63436;26.334;50.194;2023-04-09T05:04:52;101702.02;;;30.60;12.38
72794;BME280;63436;26.334;50.194;2023-04-09T05:07:18;101701.17;;;31.13;12.35
72794;BME280;63436;26.334;50.194;2023-04-09T05:09:43;101702.18;;;31.24;12.18
72794;BME280;63436;26.334;50.194;2023-04-09T05:12:09;101706.39;;;29.74;12.80
72794;BME280;63436;26.334;50.194;2023-04-09T05:14:34;101700.69;;;31.46;12.29
72794;BME280;63436;26.334;50.194;2023-04-09T05:17:00;101706.12;;;30.57;12.87
72794;BME280;63436;26.334;50.194;2023-04-09T05:19:25;101709.20;;;30.67;12.75
72794;BME280;63436;26.334;50.194;2023-04-09T05:21:51;101709.17;;;29.50;13.05
72794;BME280;63436;26.334;50.194;2023-04-09T05:24:16;101707.41;;;29.87;13.01
72794;BME280;63436;26.334;50.194;2023-04-09T05:26:41;101705.42;;;30.75;12.79
72794;BME280;63436;26.334;50.194;2023-04-09T05:29:07;101708.48;;;30.25;12.92
72794;BME280;63436;26.334;50.194;2023-04-09T05:31:32;101707.92;;;30.13;12.97
72794;BME280;63436;26.334;50.194;2023-04-09T05:33:57;101710.27;;;29.75;13.02
72794;BME280;63436;26.334;50.194;2023-04-09T05:36:23;101707.28;;;30.28;12.92
72794;BME280;63436;26.334;50.194;2023-04-09T05:38:48;101701.19;;;30.06;12.86
72794;BME280;63436;26.334;50.194;2023-04-09T05:41:14;101700.33;;;29.53;13.18
72794;BME280;63436;26.334;50.194;2023-04-09T05:43:39;101703.52;;;30.46;12.73
72794;BME280;63436;26.334;50.194;2023-04-09T05:46:04;101701.92;;;30.92;12.66
72794;BME280;63436;26.334;50.194;2023-04-09T05:48:30;101695.83;;;31.37;12.46
72794;BME280;63436;26.334;50.194;2023-04-09T05:50:56;101694.15;;;31.83;11.80
72794;BME280;63436;26.334;50.194;2023-04-09T05:53:21;101697.85;;;30.87;12.30
72794;BME280;63436;26.334;50.194;2023-04-09T05:55:47;101696.24;;;31.44;12.43
72794;BME280;63436;26.334;50.194;2023-04-09T05:58:12;101695.47;;;31.87;11.90
72794;BME280;63436;26.334;50.194;2023-04-09T06:00:38;101695.04;;;31.49;11.94
72794;BME280;63436;26.334;50.194;2023-04-09T06:03:04;101693.99;;;32.31;11.66
72794;BME280;63436;26.334;50.194;2023-04-09T06:05:29;101692.56;;;32.06;11.89
72794;BME280;63436;26.334;50.194;2023-04-09T06:07:54;101693.53;;;32.39;11.76
72794;BME280;63436;26.334;50.194;2023-04-09T06:10:19;101695.86;;;31.83;11.67
72794;BME280;63436;26.334;50.194;2023-04-09T06:12:45;101690.67;;;31.66;11.46
72794;BME280;63436;26.334;50.194;2023-04-09T06:15:10;101693.77;;;32.13;11.51
72794;BME280;63436;26.334;50.194;2023-04-09T06:17:36;101693.42;;;31.81;11.64
72794;BME280;63436;26.334;50.194;2023-04-09T06:20:02;101690.88;;;30.73;11.93
72794;BME280;63436;26.334;50.194;2023-04-09T06:22:26;101689.00;;;31.74;11.89
72794;BME280;63436;26.334;50.194;2023-04-09T06:24:52;101693.40;;;31.51;11.59
72794;BME280;63436;26.334;50.194;2023-04-09T06:27:17;101690.52;;;31.62;11.81
72794;BME280;63436;26.334;50.194;2023-04-09T06:29:43;101687.74;;;32.19;11.41
72794;BME280;63436;26.334;50.194;2023-04-09T06:32:09;101689.54;;;32.29;11.37
72794;BME280;63436;26.334;50.194;2023-04-09T06:34:34;101690.88;;;31.60;11.40
72794;BME280;63436;26.334;50.194;2023-04-09T06:36:59;101694.25;;;32.35;11.28
72794;BME280;63436;26.334;50.194;2023-04-09T06:39:24;101695.62;;;31.78;11.43
72794;BME280;63436;26.334;50.194;2023-04-09T06:41:51;101689.51;;;31.65;11.64
72794;BME280;63436;26.334;50.194;2023-04-09T06:44:16;101693.53;;;31.89;11.53
72794;BME280;63436;26.334;50.194;2023-04-09T06:46:42;101695.01;;;31.61;11.43
72794;BME280;63436;26.334;50.194;2023-04-09T06:49:07;101691.14;;;32.33;11.46
72794;BME280;63436;26.334;50.194;2023-04-09T06:51:33;101683.43;;;31.94;11.62
72794;BME280;63436;26.334;50.194;2023-04-09T06:53:59;101682.08;;;31.32;11.86
72794;BME280;63436;26.334;50.194;2023-04-09T06:56:24;101677.05;;;32.53;11.28
72794;BME280;63436;26.334;50.194;2023-04-09T06:58:49;101671.87;;;32.71;11.15
72794;BME280;63436;26.334;50.194;2023-04-09T07:01:15;101674.32;;;32.13;11.40
72794;BME280;63436;26.334;50.194;2023-04-09T07:03:40;101669.21;;;32.75;10.95
72794;BME280;63436;26.334;50.194;2023-04-09T07:06:06;101663.04;;;32.59;11.14
72794;BME280;63436;26.334;50.194;2023-04-09T07:08:32;101659.62;;;32.63;10.96
72794;BME280;63436;26.334;50.194;2023-04-09T07:10:58;101651.69;;;33.28;10.97
72794;BME280;63436;26.334;50.194;2023-04-09T07:13:23;101651.32;;;33.42;10.29
72794;BME280;63436;26.334;50.194;2023-04-09T07:15:48;101647.09;;;32.88;10.04
72794;BME280;63436;26.334;50.194;2023-04-09T07:18:14;101648.89;;;33.75;9.77
72794;BME280;63436;26.334;50.194;2023-04-09T07:20:39;101642.59;;;32.17;10.00
72794;BME280;63436;26.334;50.194;2023-04-09T07:23:04;101644.24;;;33.23;9.93
72794;BME280;63436;26.334;50.194;2023-04-09T07:25:30;101640.11;;;31.92;9.82
72794;BME280;63436;26.334;50.194;2023-04-09T07:27:56;101636.24;;;33.32;9.27
72794;BME280;63436;26.334;50.194;2023-04-09T07:30:22;101633.63;;;33.85;9.31
72794;BME280;63436;26.334;50.194;2023-04-09T07:32:47;101637.28;;;33.68;9.18
72794;BME280;63436;26.334;50.194;2023-04-09T07:35:13;101635.20;;;33.64;8.95
72794;BME280;63436;26.334;50.194;2023-04-09T07:37:39;101630.53;;;33.52;8.88
72794;BME280;63436;26.334;50.194;2023-04-09T07:40:05;101625.63;;;33.32;8.87
72794;BME280;63436;26.334;50.194;2023-04-09T07:42:29;101633.78;;;33.83;8.78
72794;BME280;63436;26.334;50.194;2023-04-09T07:44:55;101631.65;;;33.62;9.10
72794;BME280;63436;26.334;50.194;2023-04-09T07:47:21;101629.41;;;33.13;8.95
72794;BME280;63436;26.334;50.194;2023-04-09T07:49:46;101622.89;;;34.19;9.17
72794;BME280;63436;26.334;50.194;2023-04-09T07:52:11;101622.62;;;33.51;8.66
72794;BME280;63436;26.334;50.194;2023-04-09T07:54:37;101617.85;;;34.11;8.28
72794;BME280;63436;26.334;50.194;2023-04-09T07:57:02;101616.78;;;34.35;7.47
72794;BME280;63436;26.334;50.194;2023-04-09T07:59:28;101606.80;;;34.05;7.67
72794;BME280;63436;26.334;50.194;2023-04-09T08:01:53;101605.37;;;33.45;9.36
72794;BME280;63436;26.334;50.194;2023-04-09T08:04:18;101598.55;;;34.73;8.95
72794;BME280;63436;26.334;50.194;2023-04-09T08:06:44;101597.56;;;34.88;7.75
72794;BME280;63436;26.334;50.194;2023-04-09T08:09:10;101591.07;;;34.44;7.78
72794;BME280;63436;26.334;50.194;2023-04-09T08:11:35;101587.72;;;34.69;7.70
72794;BME280;63436;26.334;50.194;2023-04-09T08:14:00;101585.42;;;34.20;8.01
72794;BME280;63436;26.334;50.194;2023-04-09T08:16:26;101579.88;;;34.48;7.75
72794;BME280;63436;26.334;50.194;2023-04-09T08:18:51;101582.27;;;34.96;7.31
72794;BME280;63436;26.334;50.194;2023-04-09T08:21:17;101577.54;;;34.34;7.51
72794;BME280;63436;26.334;50.194;2023-04-09T08:23:42;101570.00;;;34.33;7.41
72794;BME280;63436;26.334;50.194;2023-04-09T08:26:08;101567.24;;;34.32;7.58
72794;BME280;63436;26.334;50.194;2023-04-09T08:28:33;101561.79;;;34.90;7.94
72794;BME280;63436;26.334;50.194;2023-04-09T08:30:59;101558.52;;;34.66;7.58
72794;BME280;63436;26.334;50.194;2023-04-09T08:33:25;101554.75;;;35.12;7.46
72794;BME280;63436;26.334;50.194;2023-04-09T08:35:49;101551.82;;;35.64;7.46
72794;BME280;63436;26.334;50.194;2023-04-09T08:38:15;101552.08;;;34.79;8.09
72794;BME280;63436;26.334;50.194;2023-04-09T08:40:40;101547.74;;;35.39;7.80
72794;BME280;63436;26.334;50.194;2023-04-09T08:43:06;101553.99;;;34.79;8.31
72794;BME280;63436;26.334;50.194;2023-04-09T08:45:31;101545.36;;;35.38;6.26
72794;BME280;63436;26.334;50.194;2023-04-09T08:47:55;101540.16;;;34.04;7.05
72794;BME280;63436;26.334;50.194;2023-04-09T08:50:21;101540.95;;;34.51;8.21
72794;BME280;63436;26.334;50.194;2023-04-09T08:52:47;101536.35;;;34.22;9.17
72794;BME280;63436;26.334;50.194;2023-04-09T08:55:12;101532.90;;;35.49;8.82
72794;BME280;63436;26.334;50.194;2023-04-09T08:57:38;101533.26;;;35.47;8.75
72794;BME280;63436;26.334;50.194;2023-04-09T09:00:04;101529.92;;;35.62;6.17
72794;BME280;63436;26.334;50.194;2023-04-09T09:02:28;101524.31;;;35.85;6.39
72794;BME280;63436;26.334;50.194;2023-04-09T09:04:53;101527.40;;;35.09;8.43
72794;BME280;63436;26.334;50.194;2023-04-09T09:07:19;101524.21;;;34.87;6.27
72794;BME280;63436;26.334;50.194;2023-04-09T09:09:52;101521.39;;;35.49;5.86
72794;BME280;63436;26.334;50.194;2023-04-09T09:12:09;101519.00;;;34.58;7.84
72794;BME280;63436;26.334;50.194;2023-04-09T09:14:35;101518.29;;;35.20;8.37
72794;BME280;63436;26.334;50.194;2023-04-09T09:17:04;101516.76;;;34.47;8.97
72794;BME280;63436;26.334;50.194;2023-04-09T09:19:28;101516.28;;;34.51;7.27
72794;BME280;63436;26.334;50.194;2023-04-09T09:21:55;101508.80;;;35.36;6.44
72794;BME280;63436;26.334;50.194;2023-04-09T09:24:17;101513.44;;;32.93;8.27
72794;BME280;63436;26.334;50.194;2023-04-09T09:26:42;101506.87;;;35.76;7.54
72794;BME280;63436;26.334;50.194;2023-04-09T09:29:08;101504.23;;;35.58;6.65
72794;BME280;63436;26.334;50.194;2023-04-09T09:34:07;101497.76;;;34.96;6.92
72794;BME280;63436;26.334;50.194;2023-04-09T09:36:31;101486.83;;;35.72;6.14
72794;BME280;63436;26.334;50.194;2023-04-09T09:38:52;101483.61;;;36.00;5.84
72794;BME280;63436;26.334;50.194;2023-04-09T09:41:16;101474.53;;;35.53;6.07
72794;BME280;63436;26.334;50.194;2023-04-09T09:43:40;101468.17;;;35.78;6.27
72794;BME280;63436;26.334;50.194;2023-04-09T09:46:07;101476.23;;;34.88;8.87
72794;BME280;63436;26.334;50.194;2023-04-09T09:48:31;101479.08;;;36.13;6.84
72794;BME280;63436;26.334;50.194;2023-04-09T09:50:58;101467.69;;;35.54;7.03
72794;BME280;63436;26.334;50.194;2023-04-09T09:53:24;101472.81;;;34.35;8.80
72794;BME280;63436;26.334;50.194;2023-04-09T09:55:48;101469.67;;;33.98;7.78
72794;BME280;63436;26.334;50.194;2023-04-09T09:58:17;101462.27;;;34.26;8.22
72794;BME280;63436;26.334;50.194;2023-04-09T10:00:39;101456.75;;;34.31;8.11
72794;BME280;63436;26.334;50.194;2023-04-09T10:03:09;101453.27;;;35.16;7.35
72794;BME280;63436;26.334;50.194;2023-04-09T10:05:29;101451.30;;;32.53;7.41
72794;BME280;63436;26.334;50.194;2023-04-09T10:07:56;101451.64;;;33.68;7.46
72794;BME280;63436;26.334;50.194;2023-04-09T10:10:20;101450.40;;;32.88;6.66
72794;BME280;63436;26.334;50.194;2023-04-09T10:12:46;101446.91;;;31.90;7.52
72794;BME280;63436;26.334;50.194;2023-04-09T10:15:10;101444.61;;;32.75;7.27
72794;BME280;63436;26.334;50.194;2023-04-09T10:17:36;101443.47;;;33.57;6.82
72794;BME280;63436;26.334;50.194;2023-04-09T10:20:09;101438.76;;;34.93;6.36
72794;BME280;63436;26.334;50.194;2023-04-09T10:22:30;101439.91;;;34.83;6.57
72794;BME280;63436;26.334;50.194;2023-04-09T10:24:52;101439.32;;;33.70;7.40
72794;BME280;63436;26.334;50.194;2023-04-09T10:27:18;101441.30;;;33.68;7.03
72794;BME280;63436;26.334;50.194;2023-04-09T10:29:44;101438.07;;;32.71;6.82
72794;BME280;63436;26.334;50.194;2023-04-09T10:32:09;101432.92;;;34.36;7.19
72794;BME280;63436;26.334;50.194;2023-04-09T10:34:36;101434.60;;;33.84;6.87
72794;BME280;63436;26.334;50.194;2023-04-09T10:37:00;101425.87;;;33.35;7.23
72794;BME280;63436;26.334;50.194;2023-04-09T10:39:26;101419.54;;;34.49;7.00
72794;BME280;63436;26.334;50.194;2023-04-09T10:41:57;101424.68;;;34.76;6.49
72794;BME280;63436;26.334;50.194;2023-04-09T10:44:23;101419.83;;;33.81;6.66
72794;BME280;63436;26.334;50.194;2023-04-09T10:46:42;101416.07;;;33.54;6.86
72794;BME280;63436;26.334;50.194;2023-04-09T10:49:09;101415.87;;;34.31;6.41
72794;BME280;63436;26.334;50.194;2023-04-09T10:51:34;101415.41;;;33.73;7.31
72794;BME280;63436;26.334;50.194;2023-04-09T10:53:59;101410.31;;;32.95;6.90
72794;BME280;63436;26.334;50.194;2023-04-09T10:56:24;101407.50;;;32.18;6.25
72794;BME280;63436;26.334;50.194;2023-04-09T10:58:49;101408.45;;;32.34;6.95
72794;BME280;63436;26.334;50.194;2023-04-09T11:01:21;101408.50;;;33.06;6.74
72794;BME280;63436;26.334;50.194;2023-04-09T11:03:44;101407.36;;;32.62;6.77
72794;BME280;63436;26.334;50.194;2023-04-09T11:06:06;101404.74;;;32.10;6.76
72794;BME280;63436;26.334;50.194;2023-04-09T11:08:32;101405.47;;;32.49;6.69
72794;BME280;63436;26.334;50.194;2023-04-09T11:10:56;101404.91;;;32.00;7.06
72794;BME280;63436;26.334;50.194;2023-04-09T11:13:21;101397.08;;;32.69;6.97
72794;BME280;63436;26.334;50.194;2023-04-09T11:15:47;101395.79;;;33.37;7.80
72794;BME280;63436;26.334;50.194;2023-04-09T11:18:14;101397.12;;;33.22;7.70
72794;BME280;63436;26.334;50.194;2023-04-09T11:20:38;101392.73;;;33.00;7.23
72794;BME280;63436;26.334;50.194;2023-04-09T11:23:03;101387.12;;;31.96;6.76
72794;BME280;63436;26.334;50.194;2023-04-09T11:25:30;101394.44;;;32.08;7.55
72794;BME280;63436;26.334;50.194;2023-04-09T11:27:54;101395.10;;;32.20;7.26
72794;BME280;63436;26.334;50.194;2023-04-09T11:30:20;101387.91;;;32.50;7.20
72794;BME280;63436;26.334;50.194;2023-04-09T11:32:45;101386.85;;;33.50;6.29
72794;BME280;63436;26.334;50.194;2023-04-09T11:35:11;101387.21;;;33.08;7.19
72794;BME280;63436;26.334;50.194;2023-04-09T11:37:36;101379.72;;;33.97;6.69
72794;BME280;63436;26.334;50.194;2023-04-09T11:40:01;101383.40;;;32.87;6.25
72794;BME280;63436;26.334;50.194;2023-04-09T11:42:31;101385.55;;;33.21;6.50
72794;BME280;63436;26.334;50.194;2023-04-09T11:44:52;101383.02;;;33.73;6.40
72794;BME280;63436;26.334;50.194;2023-04-09T11:47:17;101387.66;;;32.87;6.52
72794;BME280;63436;26.334;50.194;2023-04-09T11:49:45;101382.20;;;33.52;6.00
72794;BME280;63436;26.334;50.194;2023-04-09T11:52:08;101381.08;;;32.25;5.92
72794;BME280;63436;26.334;50.194;2023-04-09T11:54:34;101383.07;;;33.37;6.42
72794;BME280;63436;26.334;50.194;2023-04-09T11:56:59;101380.26;;;33.65;6.58
72794;BME280;63436;26.334;50.194;2023-04-09T11:59:24;101378.54;;;32.96;6.69
72794;BME280;63436;26.334;50.194;2023-04-09T12:01:49;101379.23;;;32.98;6.92
72794;BME280;63436;26.334;50.194;2023-04-09T12:04:19;101377.92;;;33.25;6.47
72794;BME280;63436;26.334;50.194;2023-04-09T12:06:40;101373.54;;;32.84;6.32
72794;BME280;63436;26.334;50.194;2023-04-09T12:09:08;101373.64;;;33.71;6.36
72794;BME280;63436;26.334;50.194;2023-04-09T12:11:31;101374.60;;;33.52;5.98
72794;BME280;63436;26.334;50.194;2023-04-09T12:13:59;101375.60;;;32.77;5.85
72794;BME280;63436;26.334;50.194;2023-04-09T12:16:20;101371.02;;;32.11;6.38
72794;BME280;63436;26.334;50.194;2023-04-09T12:18:47;101374.14;;;32.90;5.96
72794;BME280;63436;26.334;50.194;2023-04-09T12:21:11;101375.04;;;33.53;5.39
72794;BME280;63436;26.334;50.194;2023-04-09T12:23:36;101375.25;;;32.99;5.63
72794;BME280;63436;26.334;50.194;2023-04-09T12:26:01;101376.99;;;31.59;6.15
72794;BME280;63436;26.334;50.194;2023-04-09T12:28:27;101377.74;;;31.89;6.05
72794;BME280;63436;26.334;50.194;2023-04-09T12:30:52;101373.75;;;31.90;6.32
72794;BME280;63436;26.334;50.194;2023-04-09T12:33:17;101379.71;;;32.70;6.06
72794;BME280;63436;26.334;50.194;2023-04-09T12:35:42;101386.13;;;31.35;6.46
72794;BME280;63436;26.334;50.194;2023-04-09T12:38:08;101384.16;;;32.10;6.43